Time;durP1;ratioP1;P1;durP2;ratioP2;P2;SDS_P1;SDS_P2;PMS_P1;PMS_P2;Temp;Humidity;BMP_temperature;BMP_pressure;BME280_temperature;BME280_humidity;BME280_pressure;Samples;Min_cycle;Max_cycle;Signal;HPM_P1;HPM_P2
2021/03/12 00:00:22;;;;;;;;;;;27.50;72.60;;;;;;5041568;28;19911;-50
2021/03/12 00:02:48;;;;;;;;;;;27.50;72.60;;;;;;5041847;28;19980;-52
2021/03/12 00:05:16;;;;;;;;;;;27.50;72.60;;;;;;5041795;28;19913;-50
2021/03/12 00:07:42;;;;;;;;;;;27.50;72.70;;;;;;5041084;28;19924;-50
2021/03/12 00:10:14;;;;;;;;;;;27.50;72.70;;;;;;5042863;28;19912;-50
2021/03/12 00:12:40;;;;;;;;;;;27.40;72.70;;;;;;5041489;28;19971;-52
2021/03/12 00:15:08;;;;;;;;;;;27.50;72.60;;;;;;5041027;28;19912;-51
2021/03/12 00:17:34;;;;;;;;;;;27.50;72.60;;;;;;5043215;28;19921;-51
2021/03/12 00:20:07;;;;;;;;;;;27.40;72.70;;;;;;5044560;28;20097;-48
2021/03/12 00:22:33;;;;;;;;;;;27.40;72.50;;;;;;5045222;28;19917;-50
2021/03/12 00:25:00;;;;;;;;;;;27.40;72.60;;;;;;5044971;28;19906;-55
2021/03/12 00:27:26;;;;;;;;;;;27.40;72.60;;;;;;5043558;28;19913;-52
2021/03/12 00:29:52;;;;;;;;;;;27.40;72.50;;;;;;5044707;27;19977;-53
2021/03/12 00:32:19;;;;;;;;;;;27.40;72.50;;;;;;5044792;28;19913;-52
2021/03/12 00:34:45;;;;;;;;;;;27.40;72.50;;;;;;5045107;28;19937;-54
2021/03/12 00:37:11;;;;;;;;;;;27.40;72.50;;;;;;5044805;28;20113;-50
2021/03/12 00:39:37;;;;;;;;;;;27.40;72.60;;;;;;5043140;28;19905;-52
2021/03/12 00:42:04;;;;;;;;;;;27.40;72.40;;;;;;5044494;28;19917;-48
2021/03/12 00:44:30;;;;;;;;;;;27.40;72.80;;;;;;5044431;28;20225;-52
2021/03/12 00:46:57;;;;;;;;;;;27.40;72.50;;;;;;5044258;28;19913;-53
2021/03/12 00:49:25;;;;;;;;;;;27.40;72.60;;;;;;5044123;28;19906;-52
2021/03/12 00:51:51;;;;;;;;;;;27.40;72.50;;;;;;5044467;28;20105;-50
2021/03/12 00:54:17;;;;;;;;;;;27.40;72.60;;;;;;5044363;28;20197;-52
2021/03/12 00:56:43;;;;;;;;;;;27.40;72.30;;;;;;5044072;28;19948;-49
2021/03/12 00:59:10;;;;;;;;;;;27.40;72.40;;;;;;5044270;28;19942;-54
2021/03/12 01:01:37;;;;;;;;;;;27.30;72.40;;;;;;5044232;28;19912;-50
2021/03/12 01:04:06;;;;;;;;;;;27.30;72.30;;;;;;5043420;28;19913;-49
2021/03/12 01:06:33;;;;;;;;;;;27.30;72.20;;;;;;5043806;28;19961;-54
2021/03/12 01:08:59;;;;;;;;;;;27.30;72.00;;;;;;5044999;28;19921;-53
2021/03/12 01:11:25;;;;;;;;;;;27.30;72.00;;;;;;5043957;28;19937;-50
2021/03/12 01:13:51;;;;;;;;;;;27.30;72.00;;;;;;5044667;28;19920;-57
2021/03/12 01:16:18;;;;;;;;;;;27.30;71.90;;;;;;5044695;27;19960;-51
2021/03/12 01:18:47;;;;;;;;;;;27.30;71.70;;;;;;5043364;28;19954;-52
2021/03/12 01:21:13;;;;;;;;;;;27.30;71.90;;;;;;5042852;28;19905;-54
2021/03/12 01:23:40;;;;;;;;;;;27.30;71.70;;;;;;5044618;28;19913;-54
2021/03/12 01:26:06;;;;;;;;;;;27.30;72.10;;;;;;5043935;28;20252;-52
2021/03/12 01:28:35;;;;;;;;;;;27.30;71.90;;;;;;5044189;28;19980;-51
2021/03/12 01:31:02;;;;;;;;;;;27.30;71.90;;;;;;5043592;28;19920;-51
2021/03/12 01:33:28;;;;;;;;;;;27.30;72.80;;;;;;5044905;28;20243;-46
2021/03/12 01:35:54;;;;;;;;;;;27.20;72.70;;;;;;5042970;28;20203;-55
2021/03/12 01:38:20;;;;;;;;;;;27.20;72.60;;;;;;5044425;28;19976;-50
2021/03/12 01:40:48;;;;;;;;;;;27.20;72.60;;;;;;5043929;28;19933;-47
2021/03/12 01:43:14;;;;;;;;;;;27.20;72.60;;;;;;5044462;28;19936;-50
2021/03/12 01:45:42;;;;;;;;;;;27.20;72.70;;;;;;5043866;28;19946;-51
2021/03/12 01:48:11;;;;;;;;;;;27.10;72.60;;;;;;5044271;27;19914;-53
2021/03/12 01:50:38;;;;;;;;;;;27.10;72.80;;;;;;5043929;28;19933;-51
2021/03/12 01:53:08;;;;;;;;;;;27.10;72.50;;;;;;5043674;28;19954;-51
2021/03/12 01:55:37;;;;;;;;;;;27.10;72.70;;;;;;5042121;28;19974;-52
2021/03/12 01:58:03;;;;;;;;;;;27.10;73.20;;;;;;5043462;28;20146;-53
2021/03/12 02:00:31;;;;;;;;;;;27.10;73.10;;;;;;5042497;27;19905;-53
2021/03/12 02:02:58;;;;;;;;;;;27.10;73.20;;;;;;5042578;27;19957;-51
2021/03/12 02:05:24;;;;;;;;;;;27.00;73.20;;;;;;5043085;28;19913;-53
2021/03/12 02:07:50;;;;;;;;;;;27.10;73.30;;;;;;5042775;28;19954;-52
2021/03/12 02:10:19;;;;;;;;;;;27.10;73.90;;;;;;5043168;28;19911;-51
2021/03/12 02:12:54;;;;;;;;;;;27.10;73.50;;;;;;5043430;28;19941;-54
2021/03/12 02:15:24;;;;;;;;;;;27.00;73.80;;;;;;5042905;28;19909;-53
2021/03/12 02:18:16;;;;;;;;;;;27.00;73.70;;;;;;5042870;28;20197;-52
2021/03/12 02:20:42;;;;;;;;;;;27.10;73.30;;;;;;5043338;28;20197;-53
2021/03/12 02:23:17;;;;;;;;;;;27.10;72.90;;;;;;5042521;28;19958;-52
2021/03/12 02:25:47;;;;;;;;;;;27.10;72.80;;;;;;5043764;28;19962;-50
2021/03/12 02:28:13;;;;;;;;;;;27.10;72.40;;;;;;5041735;28;19913;-53
2021/03/12 02:30:40;;;;;;;;;;;27.10;72.30;;;;;;5042543;28;19905;-51
2021/03/12 02:33:07;;;;;;;;;;;27.10;72.20;;;;;;5042993;28;19980;-50
2021/03/12 02:35:37;;;;;;;;;;;27.10;72.90;;;;;;5042437;28;19909;-50
2021/03/12 02:38:05;;;;;;;;;;;27.00;72.40;;;;;;5042671;28;19952;-50
2021/03/12 02:40:32;;;;;;;;;;;27.00;72.30;;;;;;5041547;28;19905;-51
2021/03/12 02:42:58;;;;;;;;;;;27.00;72.40;;;;;;5042435;28;19936;-53
2021/03/12 02:45:24;;;;;;;;;;;27.00;72.60;;;;;;5042195;28;19940;-53
2021/03/12 02:47:51;;;;;;;;;;;27.00;72.50;;;;;;5042571;28;19934;-57
2021/03/12 02:50:18;;;;;;;;;;;27.00;72.40;;;;;;5041183;28;19944;-53
2021/03/12 02:52:45;;;;;;;;;;;27.00;72.40;;;;;;5040902;28;19967;-49
2021/03/12 02:55:12;;;;;;;;;;;27.00;72.20;;;;;;5042402;28;19908;-51
2021/03/12 02:57:39;;;;;;;;;;;26.90;72.40;;;;;;5042392;28;20131;-47
2021/03/12 03:00:07;;;;;;;;;;;26.90;72.00;;;;;;5042032;28;19916;-48
2021/03/12 03:02:33;;;;;;;;;;;27.00;72.20;;;;;;5042170;28;19909;-52
2021/03/12 03:05:00;;;;;;;;;;;27.00;72.00;;;;;;5042087;28;19950;-52
2021/03/12 03:07:27;;;;;;;;;;;27.00;71.60;;;;;;5042048;28;19961;-52
2021/03/12 03:09:53;;;;;;;;;;;27.00;71.70;;;;;;5042860;28;20171;-51
2021/03/12 03:12:23;;;;;;;;;;;27.00;72.00;;;;;;5042172;28;19913;-49
2021/03/12 03:14:51;;;;;;;;;;;27.00;72.00;;;;;;5041132;28;19905;-52
2021/03/12 03:17:18;;;;;;;;;;;27.00;71.80;;;;;;5040998;28;19917;-55
2021/03/12 03:19:46;;;;;;;;;;;27.00;71.70;;;;;;5043133;28;19964;-53
2021/03/12 03:22:13;;;;;;;;;;;27.00;71.90;;;;;;5042477;28;19913;-55
2021/03/12 03:24:39;;;;;;;;;;;26.90;71.80;;;;;;5042281;28;20078;-57
2021/03/12 03:27:07;;;;;;;;;;;27.00;72.00;;;;;;5042382;28;19913;-52
2021/03/12 03:29:34;;;;;;;;;;;27.00;72.00;;;;;;5042915;28;19906;-51
2021/03/12 03:32:01;;;;;;;;;;;26.90;72.00;;;;;;5042209;28;19937;-57
2021/03/12 03:34:27;;;;;;;;;;;26.90;72.20;;;;;;5041827;28;19912;-53
2021/03/12 03:36:53;;;;;;;;;;;26.90;72.30;;;;;;5041392;28;19964;-51
2021/03/12 03:39:20;;;;;;;;;;;26.90;71.90;;;;;;5042259;28;19905;-48
2021/03/12 03:41:49;;;;;;;;;;;26.90;71.90;;;;;;5042541;28;20185;-50
2021/03/12 03:44:17;;;;;;;;;;;26.90;71.80;;;;;;5042812;28;19957;-55
2021/03/12 03:46:46;;;;;;;;;;;26.90;72.30;;;;;;5043058;28;19971;-52
2021/03/12 03:49:14;;;;;;;;;;;26.90;71.80;;;;;;5043398;28;19917;-58
2021/03/12 03:51:42;;;;;;;;;;;26.90;71.80;;;;;;5042159;28;19905;-51
2021/03/12 03:54:11;;;;;;;;;;;26.90;71.50;;;;;;5042630;28;19936;-53
2021/03/12 03:56:38;;;;;;;;;;;26.90;71.50;;;;;;5041858;28;19909;-53
2021/03/12 03:59:05;;;;;;;;;;;26.90;71.80;;;;;;5041522;28;19920;-56
2021/03/12 04:01:31;;;;;;;;;;;26.80;71.80;;;;;;5041227;28;19905;-53
2021/03/12 04:03:58;;;;;;;;;;;26.80;71.50;;;;;;5041689;28;19913;-54
2021/03/12 04:06:28;;;;;;;;;;;26.90;71.70;;;;;;5041209;28;20166;-53
2021/03/12 04:08:55;;;;;;;;;;;26.90;71.80;;;;;;5041809;28;19960;-53
2021/03/12 04:11:22;;;;;;;;;;;26.80;71.60;;;;;;5041359;28;19909;-53
2021/03/12 04:13:49;;;;;;;;;;;26.90;72.00;;;;;;5042070;28;19969;-51
2021/03/12 04:16:15;;;;;;;;;;;26.80;71.70;;;;;;5041389;28;19920;-57
2021/03/12 04:18:42;;;;;;;;;;;26.80;72.20;;;;;;5041387;28;19916;-51
2021/03/12 04:21:09;;;;;;;;;;;26.80;72.40;;;;;;5040881;28;19909;-52
2021/03/12 04:23:36;;;;;;;;;;;26.70;72.10;;;;;;5041410;28;20062;-52
2021/03/12 04:26:02;;;;;;;;;;;26.70;72.00;;;;;;5040942;28;20221;-52
2021/03/12 04:28:28;;;;;;;;;;;26.70;72.10;;;;;;5041259;28;20140;-51
2021/03/12 04:30:54;;;;;;;;;;;26.70;72.60;;;;;;5040861;28;19916;-52
2021/03/12 04:33:21;;;;;;;;;;;26.70;72.50;;;;;;5041369;28;20134;-57
2021/03/12 04:35:47;;;;;;;;;;;26.70;72.30;;;;;;5040686;28;19992;-54
2021/03/12 04:38:13;;;;;;;;;;;26.70;72.20;;;;;;5041153;28;19909;-54
2021/03/12 04:40:40;;;;;;;;;;;26.60;72.30;;;;;;5040974;28;19939;-52
2021/03/12 04:43:07;;;;;;;;;;;26.60;72.20;;;;;;5041061;28;19910;-53
2021/03/12 04:45:33;;;;;;;;;;;26.60;71.90;;;;;;5040816;28;19917;-54
2021/03/12 04:48:00;;;;;;;;;;;26.60;71.90;;;;;;5041034;28;20186;-56
2021/03/12 04:50:26;;;;;;;;;;;26.60;72.20;;;;;;5040723;28;20221;-51
2021/03/12 04:52:56;;;;;;;;;;;26.60;72.30;;;;;;5040897;28;19917;-54
2021/03/12 04:55:23;;;;;;;;;;;26.60;72.20;;;;;;5040927;28;20086;-58
2021/03/12 04:57:49;;;;;;;;;;;26.60;71.90;;;;;;5040649;28;20180;-45
2021/03/12 05:00:16;;;;;;;;;;;26.60;71.90;;;;;;5040499;28;19917;-53
2021/03/12 05:02:42;;;;;;;;;;;26.60;72.00;;;;;;5040930;28;19932;-56
2021/03/12 05:05:10;;;;;;;;;;;26.60;71.80;;;;;;5043768;28;19916;-50
2021/03/12 05:07:36;;;;;;;;;;;26.50;71.60;;;;;;5043977;28;19924;-53
2021/03/12 05:10:04;;;;;;;;;;;26.50;72.00;;;;;;5043940;28;19908;-52
2021/03/12 05:12:30;;;;;;;;;;;26.50;72.60;;;;;;5043924;28;19914;-54
2021/03/12 05:14:57;;;;;;;;;;;26.40;72.60;;;;;;5042549;28;19909;-52
2021/03/12 05:17:23;;;;;;;;;;;26.40;72.40;;;;;;5044015;28;20197;-51
2021/03/12 05:19:49;;;;;;;;;;;26.40;72.50;;;;;;5043779;28;19912;-52
2021/03/12 05:22:16;;;;;;;;;;;26.40;72.70;;;;;;5043465;28;19913;-54
2021/03/12 05:24:42;;;;;;;;;;;26.30;72.90;;;;;;5043448;28;19972;-50
2021/03/12 05:27:08;;;;;;;;;;;26.30;73.10;;;;;;5043754;28;19913;-54
2021/03/12 05:29:35;;;;;;;;;;;26.30;72.80;;;;;;5043331;28;19905;-51
2021/03/12 05:32:01;;;;;;;;;;;26.30;72.80;;;;;;5043482;28;19914;-52
2021/03/12 05:34:27;;;;;;;;;;;26.30;72.60;;;;;;5043483;28;19920;-52
2021/03/12 05:36:54;;;;;;;;;;;26.40;72.60;;;;;;5043026;28;19909;-52
2021/03/12 05:39:20;;;;;;;;;;;26.30;72.70;;;;;;5043362;28;19905;-52
2021/03/12 05:41:47;;;;;;;;;;;26.30;72.80;;;;;;5043225;28;19905;-53
2021/03/12 05:44:13;;;;;;;;;;;26.30;72.90;;;;;;5043159;28;19912;-54
2021/03/12 05:46:39;;;;;;;;;;;26.30;73.00;;;;;;5043094;28;19906;-52
2021/03/12 05:49:05;;;;;;;;;;;26.30;72.90;;;;;;5043101;28;20153;-53
2021/03/12 05:51:35;;;;;;;;;;;26.30;73.10;;;;;;5043047;28;20127;-48
2021/03/12 05:54:02;;;;;;;;;;;26.30;72.80;;;;;;5043107;28;19941;-52
2021/03/12 05:56:29;;;;;;;;;;;26.30;72.90;;;;;;5042901;28;19913;-52
2021/03/12 05:58:55;;;;;;;;;;;26.20;73.30;;;;;;5043293;28;20194;-51
2021/03/12 06:01:21;;;;;;;;;;;26.20;73.10;;;;;;5042968;28;19913;-51
2021/03/12 06:03:47;;;;;;;;;;;26.20;73.30;;;;;;5043329;28;19944;-52
2021/03/12 06:06:14;;;;;;;;;;;26.20;73.30;;;;;;5042767;28;19917;-52
2021/03/12 06:08:40;;;;;;;;;;;26.10;73.30;;;;;;5042780;28;19980;-50
2021/03/12 06:11:06;;;;;;;;;;;26.10;73.30;;;;;;5042869;28;19950;-52
2021/03/12 06:13:52;;;;;;;;;;;26.10;73.30;;;;;;5043245;27;19980;-52
2021/03/12 06:16:23;;;;;;;;;;;26.10;73.40;;;;;;5042369;28;19909;-52
2021/03/12 06:19:07;;;;;;;;;;;26.10;73.30;;;;;;5043184;28;19921;-53
2021/03/12 06:21:33;;;;;;;;;;;26.00;73.80;;;;;;5042695;28;20240;-52
2021/03/12 06:24:00;;;;;;;;;;;26.00;73.40;;;;;;5043108;28;19921;-53
2021/03/12 06:26:43;;;;;;;;;;;26.00;73.30;;;;;;5042310;28;19909;-53
2021/03/12 06:29:09;;;;;;;;;;;26.10;73.10;;;;;;5042513;28;19913;-53
2021/03/12 06:31:37;;;;;;;;;;;26.10;73.20;;;;;;5042331;28;19972;-52
2021/03/12 06:34:10;;;;;;;;;;;26.00;73.30;;;;;;5042468;28;19930;-52
2021/03/12 06:36:36;;;;;;;;;;;26.00;73.30;;;;;;5042313;28;20140;-48
2021/03/12 06:39:03;;;;;;;;;;;26.00;73.10;;;;;;5042258;28;19909;-50
2021/03/12 06:41:55;;;;;;;;;;;26.00;73.30;;;;;;5042278;28;19946;-50
2021/03/12 06:44:25;;;;;;;;;;;26.00;73.30;;;;;;5042908;28;19914;-51
2021/03/12 06:46:52;;;;;;;;;;;26.00;73.00;;;;;;5042324;28;19905;-54
2021/03/12 06:49:18;;;;;;;;;;;26.00;72.90;;;;;;5042441;28;20102;-51
2021/03/12 06:51:54;;;;;;;;;;;26.00;72.90;;;;;;5042042;28;19969;-52
2021/03/12 06:54:20;;;;;;;;;;;26.00;72.60;;;;;;5042341;28;20114;-51
2021/03/12 06:56:47;;;;;;;;;;;26.00;72.50;;;;;;5041982;28;19985;-48
2021/03/12 06:59:14;;;;;;;;;;;26.00;72.40;;;;;;5042343;28;20156;-50
2021/03/12 07:01:40;;;;;;;;;;;26.00;72.60;;;;;;5041978;28;20006;-50
2021/03/12 07:04:13;;;;;;;;;;;26.00;72.50;;;;;;5041981;28;19909;-53
2021/03/12 07:06:43;;;;;;;;;;;26.00;73.00;;;;;;5041936;28;19917;-50
2021/03/12 07:09:09;;;;;;;;;;;26.00;73.10;;;;;;5042048;28;19948;-51
2021/03/12 07:11:35;;;;;;;;;;;26.00;73.50;;;;;;5041621;28;19942;-50
2021/03/12 07:14:02;;;;;;;;;;;25.90;73.00;;;;;;5041824;28;19909;-52
2021/03/12 07:16:28;;;;;;;;;;;25.90;73.00;;;;;;5041739;28;19909;-52
2021/03/12 07:18:55;;;;;;;;;;;25.90;72.80;;;;;;5042127;28;19958;-49
2021/03/12 07:21:22;;;;;;;;;;;25.90;72.70;;;;;;5041870;28;19913;-58
2021/03/12 07:23:49;;;;;;;;;;;25.90;73.20;;;;;;5042377;28;19936;-57
2021/03/12 07:26:16;;;;;;;;;;;25.90;72.70;;;;;;5041170;28;19948;-54
2021/03/12 07:28:43;;;;;;;;;;;26.00;72.20;;;;;;5042192;28;20177;-52
2021/03/12 07:31:11;;;;;;;;;;;26.00;71.90;;;;;;5041698;28;19909;-50
2021/03/12 07:33:37;;;;;;;;;;;26.00;72.20;;;;;;5041891;28;19940;-51
2021/03/12 07:36:08;;;;;;;;;;;26.00;72.00;;;;;;5041579;28;19941;-50
2021/03/12 07:38:35;;;;;;;;;;;26.00;72.40;;;;;;5041904;28;19909;-50
2021/03/12 07:41:02;;;;;;;;;;;26.00;72.30;;;;;;5041394;28;19909;-50
2021/03/12 07:43:29;;;;;;;;;;;25.90;72.40;;;;;;5041899;28;19916;-50
2021/03/12 07:45:56;;;;;;;;;;;25.90;72.40;;;;;;5041439;28;19909;-50
2021/03/12 07:48:26;;;;;;;;;;;25.90;73.10;;;;;;5041638;28;19950;-50
2021/03/12 07:51:02;;;;;;;;;;;25.90;73.90;;;;;;5041411;28;19913;-49
2021/03/12 07:53:48;;;;;;;;;;;25.80;73.20;;;;;;5041789;28;19909;-50
2021/03/12 07:56:15;;;;;;;;;;;25.80;73.30;;;;;;5041016;28;19913;-52
2021/03/12 07:58:52;;;;;;;;;;;25.80;73.30;;;;;;5042009;28;19917;-55
2021/03/12 08:01:19;;;;;;;;;;;25.80;73.10;;;;;;5041382;28;19909;-52
2021/03/12 08:03:45;;;;;;;;;;;25.70;73.30;;;;;;5041716;28;19935;-57
2021/03/12 08:06:21;;;;;;;;;;;25.70;73.30;;;;;;5041117;28;20220;-55
2021/03/12 08:08:47;;;;;;;;;;;25.70;73.10;;;;;;5041731;28;19955;-62
2021/03/12 08:11:17;;;;;;;;;;;25.70;73.00;;;;;;5041221;28;19913;-56
2021/03/12 08:13:43;;;;;;;;;;;25.70;73.20;;;;;;5041806;28;19909;-53
2021/03/12 08:16:09;;;;;;;;;;;25.70;73.30;;;;;;5041165;28;19920;-52
2021/03/12 08:18:35;;;;;;;;;;;25.70;73.00;;;;;;5041455;28;20101;-56
2021/03/12 08:21:20;;;;;;;;;;;25.80;73.10;;;;;;5040898;28;19972;-54
2021/03/12 08:23:46;;;;;;;;;;;25.80;73.00;;;;;;5041270;28;19909;-52
2021/03/12 08:26:12;;;;;;;;;;;25.70;73.00;;;;;;5040982;28;20191;-52
2021/03/12 08:28:38;;;;;;;;;;;25.80;72.70;;;;;;5041272;28;19981;-53
2021/03/12 08:31:04;;;;;;;;;;;25.80;72.40;;;;;;5041116;28;19916;-55
2021/03/12 08:33:31;;;;;;;;;;;25.80;72.70;;;;;;5041301;28;19976;-54
2021/03/12 08:35:58;;;;;;;;;;;25.80;72.60;;;;;;5040548;28;19954;-54
2021/03/12 08:38:30;;;;;;;;;;;25.80;72.50;;;;;;5041955;28;20082;-59
2021/03/12 08:41:00;;;;;;;;;;;25.80;72.90;;;;;;5044239;28;19909;-55
2021/03/12 08:43:28;;;;;;;;;;;25.80;72.90;;;;;;5044707;28;19924;-55
2021/03/12 08:45:55;;;;;;;;;;;25.80;73.00;;;;;;5044196;28;19909;-55
2021/03/12 08:48:25;;;;;;;;;;;25.80;72.90;;;;;;5044611;28;19910;-49
2021/03/12 08:50:52;;;;;;;;;;;25.80;72.60;;;;;;5044213;28;19932;-52
2021/03/12 08:53:19;;;;;;;;;;;25.80;72.70;;;;;;5044421;28;19976;-53
2021/03/12 08:55:47;;;;;;;;;;;25.80;72.50;;;;;;5043650;28;19913;-52
2021/03/12 08:58:17;;;;;;;;;;;25.90;72.60;;;;;;5044526;28;19976;-55
2021/03/12 09:00:45;;;;;;;;;;;25.90;72.60;;;;;;5043983;28;19913;-59
2021/03/12 09:03:15;;;;;;;;;;;25.90;72.50;;;;;;5042853;28;19909;-57
2021/03/12 09:05:41;;;;;;;;;;;25.90;72.40;;;;;;5043778;28;19921;-60
2021/03/12 09:08:08;;;;;;;;;;;25.90;72.60;;;;;;5044272;28;19917;-63
2021/03/12 09:10:34;;;;;;;;;;;25.80;72.60;;;;;;5043639;28;20208;-60
2021/03/12 09:13:01;;;;;;;;;;;25.90;72.80;;;;;;5044046;28;19947;-55
2021/03/12 09:15:27;;;;;;;;;;;25.90;72.60;;;;;;5044014;28;19917;-52
2021/03/12 09:17:57;;;;;;;;;;;25.90;72.60;;;;;;5042548;28;19917;-52
2021/03/12 09:20:24;;;;;;;;;;;25.90;72.50;;;;;;5043567;28;19972;-53
2021/03/12 09:22:52;;;;;;;;;;;25.90;72.30;;;;;;5043651;28;19988;-52
2021/03/12 09:25:31;;;;;;;;;;;25.90;73.00;;;;;;5043463;28;19912;-54
2021/03/12 09:28:15;;;;;;;;;;;25.90;72.70;;;;;;5043745;28;19913;-53
2021/03/12 09:30:46;;;;;;;;;;;25.90;72.80;;;;;;5043317;28;19905;-53
2021/03/12 09:33:30;;;;;;;;;;;25.90;72.80;;;;;;5043874;28;19913;-50
2021/03/12 09:35:57;;;;;;;;;;;25.90;72.70;;;;;;5043140;28;19947;-55
2021/03/12 09:38:36;;;;;;;;;;;25.90;72.90;;;;;;5043860;28;20146;-53
2021/03/12 09:41:13;;;;;;;;;;;25.90;72.70;;;;;;5043124;28;19905;-55
2021/03/12 09:43:39;;;;;;;;;;;25.90;72.80;;;;;;5043724;28;19920;-53
2021/03/12 09:46:05;;;;;;;;;;;25.90;72.80;;;;;;5043535;28;19905;-52
2021/03/12 09:48:32;;;;;;;;;;;25.90;73.20;;;;;;5043138;28;19944;-52
2021/03/12 09:50:58;;;;;;;;;;;25.90;72.80;;;;;;5043082;28;19912;-51
2021/03/12 09:53:24;;;;;;;;;;;25.90;73.00;;;;;;5043613;28;19954;-58
2021/03/12 09:55:52;;;;;;;;;;;25.80;72.60;;;;;;5042792;28;19916;-53
2021/03/12 09:58:19;;;;;;;;;;;25.90;73.50;;;;;;5043477;28;20186;-50
2021/03/12 10:00:45;;;;;;;;;;;25.90;72.90;;;;;;5043112;28;19909;-53
2021/03/12 10:03:11;;;;;;;;;;;25.90;72.90;;;;;;5043215;28;19913;-52
2021/03/12 10:05:37;;;;;;;;;;;25.80;73.00;;;;;;5043180;28;19905;-55
2021/03/12 10:08:04;;;;;;;;;;;25.90;72.80;;;;;;5043182;28;20018;-53
2021/03/12 10:10:32;;;;;;;;;;;25.80;72.80;;;;;;5042049;28;19912;-52
2021/03/12 10:13:00;;;;;;;;;;;25.80;72.80;;;;;;5043248;28;19913;-52
2021/03/12 10:15:30;;;;;;;;;;;25.90;72.90;;;;;;5043013;28;20101;-54
2021/03/12 10:17:56;;;;;;;;;;;25.90;72.80;;;;;;5042928;28;19944;-54
2021/03/12 10:20:27;;;;;;;;;;;25.90;72.70;;;;;;5043128;28;19909;-54
2021/03/12 10:22:53;;;;;;;;;;;25.90;73.00;;;;;;5041587;28;19944;-54
2021/03/12 10:25:23;;;;;;;;;;;25.80;73.10;;;;;;5042945;28;19945;-56
2021/03/12 10:27:52;;;;;;;;;;;25.90;73.40;;;;;;5042898;28;20189;-53
2021/03/12 10:30:19;;;;;;;;;;;25.80;73.50;;;;;;5042591;28;19909;-54
2021/03/12 10:32:47;;;;;;;;;;;25.80;73.40;;;;;;5042710;28;19909;-53
2021/03/12 10:35:19;;;;;;;;;;;25.90;73.80;;;;;;5042520;28;20100;-54
2021/03/12 10:37:46;;;;;;;;;;;25.90;73.70;;;;;;5043194;28;19932;-53
2021/03/12 10:40:12;;;;;;;;;;;25.90;74.10;;;;;;5043349;28;20144;-54
2021/03/12 10:42:39;;;;;;;;;;;25.90;73.80;;;;;;5043181;28;19980;-55
2021/03/12 10:45:06;;;;;;;;;;;25.90;73.70;;;;;;5044303;28;19909;-57
2021/03/12 10:47:33;;;;;;;;;;;25.80;73.70;;;;;;5042802;28;19909;-52
2021/03/12 10:50:03;;;;;;;;;;;25.90;73.90;;;;;;5043022;28;19933;-54
2021/03/12 10:52:33;;;;;;;;;;;25.80;73.90;;;;;;5048046;28;19913;-51
2021/03/12 10:55:09;;;;;;;;;;;25.90;73.80;;;;;;5043316;28;19909;-55
2021/03/12 10:57:44;;;;;;;;;;;25.90;74.00;;;;;;5042375;28;19984;-52
2021/03/12 11:00:21;;;;;;;;;;;26.00;73.70;;;;;;5042063;28;19913;-51
2021/03/12 11:02:48;;;;;;;;;;;25.90;73.70;;;;;;5040838;28;19913;-54
2021/03/12 11:05:17;;;;;;;;;;;26.00;73.60;;;;;;5041961;28;19946;-51
2021/03/12 11:07:44;;;;;;;;;;;26.00;73.80;;;;;;5041986;28;20165;-52
2021/03/12 11:10:10;;;;;;;;;;;26.00;73.50;;;;;;5042055;28;19909;-53
2021/03/12 11:12:39;;;;;;;;;;;25.90;73.50;;;;;;5041928;28;19913;-53
2021/03/12 11:15:06;;;;;;;;;;;26.00;73.50;;;;;;5042517;28;19905;-52
2021/03/12 11:17:32;;;;;;;;;;;26.00;73.30;;;;;;5041949;28;19921;-52
2021/03/12 11:19:58;;;;;;;;;;;26.00;73.00;;;;;;5041737;28;19905;-52
2021/03/12 11:22:24;;;;;;;;;;;26.00;72.90;;;;;;5041891;28;19917;-51
2021/03/12 11:24:51;;;;;;;;;;;26.00;73.10;;;;;;5043167;28;20101;-53
2021/03/12 11:27:17;;;;;;;;;;;26.00;73.20;;;;;;5041031;28;19913;-48
2021/03/12 11:29:44;;;;;;;;;;;26.00;73.10;;;;;;5041652;28;19940;-51
2021/03/12 11:32:10;;;;;;;;;;;26.00;73.00;;;;;;5041706;28;19929;-51
2021/03/12 11:34:36;;;;;;;;;;;26.00;73.00;;;;;;5041507;28;19905;-50
2021/03/12 11:37:02;;;;;;;;;;;26.00;73.00;;;;;;5041405;28;19917;-50
2021/03/12 11:39:29;;;;;;;;;;;26.00;72.90;;;;;;5041455;28;19905;-53
2021/03/12 11:41:55;;;;;;;;;;;26.00;72.90;;;;;;5041496;28;19925;-54
2021/03/12 11:44:21;;;;;;;;;;;26.00;72.90;;;;;;5041483;28;19905;-51
2021/03/12 11:46:48;;;;;;;;;;;26.10;73.00;;;;;;5041990;28;19913;-54
2021/03/12 11:49:14;;;;;;;;;;;26.10;73.10;;;;;;5041423;28;19913;-51
2021/03/12 11:51:41;;;;;;;;;;;26.10;73.10;;;;;;5041179;28;20144;-51
2021/03/12 11:54:07;;;;;;;;;;;26.10;73.20;;;;;;5041122;28;19928;-50
2021/03/12 11:56:34;;;;;;;;;;;26.10;72.90;;;;;;5040969;28;20034;-52
2021/03/12 11:59:00;;;;;;;;;;;26.10;72.90;;;;;;5041260;28;19920;-52
2021/03/12 12:01:28;;;;;;;;;;;26.10;73.00;;;;;;5041243;28;20160;-51
2021/03/12 12:03:54;;;;;;;;;;;26.10;72.90;;;;;;5041426;28;20000;-54
2021/03/12 12:06:20;;;;;;;;;;;26.10;73.00;;;;;;5040781;28;19924;-53
2021/03/12 12:08:47;;;;;;;;;;;26.10;73.00;;;;;;5040770;28;19913;-52
2021/03/12 12:11:13;;;;;;;;;;;26.10;72.90;;;;;;5041121;28;19905;-54
2021/03/12 12:13:39;;;;;;;;;;;26.10;73.10;;;;;;5045713;28;20094;-54
2021/03/12 12:16:05;;;;;;;;;;;26.20;73.50;;;;;;5043481;28;19910;-51
2021/03/12 12:18:32;;;;;;;;;;;26.10;73.50;;;;;;5045035;28;19968;-52
2021/03/12 12:20:58;;;;;;;;;;;26.10;73.70;;;;;;5044506;28;19912;-48
2021/03/12 12:23:24;;;;;;;;;;;26.10;73.70;;;;;;5044738;28;20215;-50
2021/03/12 12:25:50;;;;;;;;;;;26.10;74.20;;;;;;5044885;28;19912;-50
2021/03/12 12:28:16;;;;;;;;;;;26.10;75.10;;;;;;5044495;27;19914;-51
2021/03/12 12:30:43;;;;;;;;;;;26.10;75.20;;;;;;5044161;28;19905;-54
2021/03/12 12:33:09;;;;;;;;;;;26.10;75.30;;;;;;5044584;28;20173;-53
2021/03/12 12:35:35;;;;;;;;;;;26.10;76.20;;;;;;5044161;28;19909;-51
2021/03/12 12:38:01;;;;;;;;;;;26.10;77.30;;;;;;5044082;28;19913;-52
2021/03/12 12:40:27;;;;;;;;;;;26.10;77.50;;;;;;5044214;28;19905;-55
2021/03/12 12:42:54;;;;;;;;;;;26.10;75.90;;;;;;5044346;28;19913;-54
2021/03/12 12:45:20;;;;;;;;;;;26.10;77.30;;;;;;5044102;28;19932;-52
2021/03/12 12:47:46;;;;;;;;;;;26.00;77.60;;;;;;5044427;28;19958;-52
2021/03/12 12:50:15;;;;;;;;;;;26.00;77.80;;;;;;5044240;28;20130;-51
2021/03/12 12:52:41;;;;;;;;;;;26.00;77.80;;;;;;5044174;28;19913;-52
2021/03/12 12:55:07;;;;;;;;;;;26.00;77.90;;;;;;5044099;28;20116;-51
2021/03/12 12:57:35;;;;;;;;;;;26.00;77.10;;;;;;5043666;28;19923;-52
2021/03/12 13:00:03;;;;;;;;;;;26.00;77.20;;;;;;5043744;28;19905;-51
2021/03/12 13:02:30;;;;;;;;;;;26.00;77.50;;;;;;5042845;28;19913;-52
2021/03/12 13:04:56;;;;;;;;;;;26.00;77.20;;;;;;5044019;28;19993;-65
2021/03/12 13:07:22;;;;;;;;;;;26.00;76.80;;;;;;5043612;28;19928;-53
2021/03/12 13:09:49;;;;;;;;;;;26.10;76.70;;;;;;5043756;28;19905;-53
2021/03/12 13:12:15;;;;;;;;;;;26.10;76.90;;;;;;5043996;28;20078;-52
2021/03/12 13:14:41;;;;;;;;;;;26.10;77.00;;;;;;5043888;28;19909;-49
2021/03/12 13:17:07;;;;;;;;;;;26.10;76.70;;;;;;5042794;28;20246;-51
2021/03/12 13:19:34;;;;;;;;;;;26.20;76.30;;;;;;5043704;28;19909;-52
2021/03/12 13:22:00;;;;;;;;;;;26.20;76.10;;;;;;5043488;28;19913;-53
2021/03/12 13:24:26;;;;;;;;;;;26.10;75.50;;;;;;5042789;28;19948;-52
2021/03/12 13:26:53;;;;;;;;;;;26.20;75.60;;;;;;5043528;28;19905;-52
2021/03/12 13:29:19;;;;;;;;;;;26.10;75.30;;;;;;5043481;28;20194;-53
2021/03/12 13:31:45;;;;;;;;;;;26.10;75.10;;;;;;5043259;28;19906;-52
2021/03/12 13:34:11;;;;;;;;;;;26.10;74.90;;;;;;5043586;28;19905;-52
2021/03/12 13:36:37;;;;;;;;;;;26.10;74.50;;;;;;5043669;28;19913;-50
2021/03/12 13:39:06;;;;;;;;;;;26.10;74.30;;;;;;5042146;28;20109;-52
2021/03/12 13:41:33;;;;;;;;;;;26.20;74.10;;;;;;5043843;28;19912;-53
2021/03/12 13:43:59;;;;;;;;;;;26.20;74.30;;;;;;5043890;28;20186;-52
2021/03/12 13:46:25;;;;;;;;;;;26.20;73.90;;;;;;5043277;28;19915;-52
2021/03/12 13:48:52;;;;;;;;;;;26.20;73.60;;;;;;5043583;28;19958;-52
2021/03/12 13:51:18;;;;;;;;;;;26.30;73.60;;;;;;5043479;28;19909;-52
2021/03/12 13:53:44;;;;;;;;;;;26.30;73.40;;;;;;5043506;28;19917;-54
2021/03/12 13:56:11;;;;;;;;;;;26.30;73.60;;;;;;5043340;28;20201;-53
2021/03/12 13:58:37;;;;;;;;;;;26.20;73.40;;;;;;5043813;28;19913;-55
2021/03/12 14:01:03;;;;;;;;;;;26.30;73.60;;;;;;5043870;28;19909;-56
2021/03/12 14:03:30;;;;;;;;;;;26.20;73.30;;;;;;5044459;28;19968;-54
2021/03/12 14:05:56;;;;;;;;;;;26.20;73.50;;;;;;5044079;28;19939;-53
2021/03/12 14:08:25;;;;;;;;;;;26.20;73.80;;;;;;5044353;28;19916;-54
2021/03/12 14:10:52;;;;;;;;;;;26.30;73.70;;;;;;5044421;28;19917;-54
2021/03/12 14:13:18;;;;;;;;;;;26.30;73.90;;;;;;5043174;28;19909;-58
2021/03/12 14:15:48;;;;;;;;;;;26.30;74.00;;;;;;5042452;28;19913;-50
2021/03/12 14:18:14;;;;;;;;;;;26.30;73.80;;;;;;5043366;28;19910;-52